sensor_id;sensor_type;location;lat;lon;timestamp;temperature;humidity
71184;DHT22;58887;51.980;4.464;2023-02-11T00:01:32;8.16;80.32
71184;DHT22;58887;51.980;4.464;2023-02-11T00:03:57;8.14;80.10
71184;DHT22;58887;51.980;4.464;2023-02-11T00:06:25;8.20;80.01
71184;DHT22;58887;51.980;4.464;2023-02-11T00:08:53;8.20;79.96
71184;DHT22;58887;51.980;4.464;2023-02-11T00:11:20;8.03;80.17
71184;DHT22;58887;51.980;4.464;2023-02-11T00:13:47;8.06;80.18
71184;DHT22;58887;51.980;4.464;2023-02-11T00:16:18;8.10;80.20
71184;DHT22;58887;51.980;4.464;2023-02-11T00:18:44;8.23;80.02
71184;DHT22;58887;51.980;4.464;2023-02-11T00:21:16;8.09;80.26
71184;DHT22;58887;51.980;4.464;2023-02-11T00:23:42;8.20;79.73
71184;DHT22;58887;51.980;4.464;2023-02-11T00:26:23;8.12;80.30
71184;DHT22;58887;51.980;4.464;2023-02-11T00:28:50;8.09;80.01
71184;DHT22;58887;51.980;4.464;2023-02-11T00:31:20;8.10;79.88
71184;DHT22;58887;51.980;4.464;2023-02-11T00:33:46;7.97;80.08
71184;DHT22;58887;51.980;4.464;2023-02-11T00:36:15;8.16;79.81
71184;DHT22;58887;51.980;4.464;2023-02-11T00:38:43;8.20;79.63
71184;DHT22;58887;51.980;4.464;2023-02-11T00:41:10;8.32;78.95
71184;DHT22;58887;51.980;4.464;2023-02-11T00:43:36;8.33;78.79
71184;DHT22;58887;51.980;4.464;2023-02-11T00:46:01;8.26;79.08
71184;DHT22;58887;51.980;4.464;2023-02-11T00:48:27;8.29;78.78
71184;DHT22;58887;51.980;4.464;2023-02-11T00:50:53;8.34;78.50
71184;DHT22;58887;51.980;4.464;2023-02-11T00:53:18;8.34;78.52
71184;DHT22;58887;51.980;4.464;2023-02-11T00:55:44;8.22;78.98
71184;DHT22;58887;51.980;4.464;2023-02-11T00:58:10;8.10;79.58
71184;DHT22;58887;51.980;4.464;2023-02-11T01:00:35;8.06;79.71
71184;DHT22;58887;51.980;4.464;2023-02-11T01:03:01;7.96;79.89
71184;DHT22;58887;51.980;4.464;2023-02-11T01:05:27;8.12;79.53
71184;DHT22;58887;51.980;4.464;2023-02-11T01:07:53;8.17;79.45
71184;DHT22;58887;51.980;4.464;2023-02-11T01:10:18;8.22;79.18
71184;DHT22;58887;51.980;4.464;2023-02-11T01:12:44;8.17;79.38
71184;DHT22;58887;51.980;4.464;2023-02-11T01:15:12;8.22;79.59
71184;DHT22;58887;51.980;4.464;2023-02-11T01:17:38;8.30;79.25
71184;DHT22;58887;51.980;4.464;2023-02-11T01:20:07;8.23;79.40
71184;DHT22;58887;51.980;4.464;2023-02-11T01:22:33;8.23;79.66
71184;DHT22;58887;51.980;4.464;2023-02-11T01:25:02;8.26;79.60
71184;DHT22;58887;51.980;4.464;2023-02-11T01:27:27;8.23;79.29
71184;DHT22;58887;51.980;4.464;2023-02-11T01:29:53;8.13;79.72
71184;DHT22;58887;51.980;4.464;2023-02-11T01:32:18;8.04;80.41
71184;DHT22;58887;51.980;4.464;2023-02-11T01:34:44;7.93;80.69
71184;DHT22;58887;51.980;4.464;2023-02-11T01:37:09;7.92;80.95
71184;DHT22;58887;51.980;4.464;2023-02-11T01:39:35;7.82;81.45
71184;DHT22;58887;51.980;4.464;2023-02-11T01:42:00;7.85;81.08
71184;DHT22;58887;51.980;4.464;2023-02-11T01:44:34;7.87;80.97
71184;DHT22;58887;51.980;4.464;2023-02-11T01:47:00;7.86;81.09
71184;DHT22;58887;51.980;4.464;2023-02-11T01:52:09;7.71;81.50
71184;DHT22;58887;51.980;4.464;2023-02-11T01:54:44;7.51;82.36
71184;DHT22;58887;51.980;4.464;2023-02-11T01:57:33;7.62;82.12
71184;DHT22;58887;51.980;4.464;2023-02-11T02:02:50;7.38;82.70
71184;DHT22;58887;51.980;4.464;2023-02-11T02:08:10;7.40;82.74
71184;DHT22;58887;51.980;4.464;2023-02-11T02:10:46;7.48;83.23
71184;DHT22;58887;51.980;4.464;2023-02-11T02:13:12;7.20;83.74
71184;DHT22;58887;51.980;4.464;2023-02-11T02:15:43;7.43;83.07
71184;DHT22;58887;51.980;4.464;2023-02-11T02:18:53;7.54;82.85
71184;DHT22;58887;51.980;4.464;2023-02-11T02:21:51;7.55;82.80
71184;DHT22;58887;51.980;4.464;2023-02-11T02:29:50;7.52;82.73
71184;DHT22;58887;51.980;4.464;2023-02-11T02:37:50;7.32;83.51
71184;DHT22;58887;51.980;4.464;2023-02-11T02:40:30;7.10;84.25
71184;DHT22;58887;51.980;4.464;2023-02-11T02:42:59;7.18;84.52
71184;DHT22;58887;51.980;4.464;2023-02-11T02:45:25;7.27;84.22
71184;DHT22;58887;51.980;4.464;2023-02-11T02:47:51;7.35;83.73
71184;DHT22;58887;51.980;4.464;2023-02-11T02:50:23;7.45;83.52
71184;DHT22;58887;51.980;4.464;2023-02-11T02:55:33;7.45;83.22
71184;DHT22;58887;51.980;4.464;2023-02-11T02:58:24;7.44;83.25
71184;DHT22;58887;51.980;4.464;2023-02-11T03:01:37;7.31;83.61
71184;DHT22;58887;51.980;4.464;2023-02-11T03:04:12;7.07;84.17
71184;DHT22;58887;51.980;4.464;2023-02-11T03:09:27;7.07;85.10
71184;DHT22;58887;51.980;4.464;2023-02-11T03:11:54;7.11;85.15
71184;DHT22;58887;51.980;4.464;2023-02-11T03:14:24;7.10;85.31
71184;DHT22;58887;51.980;4.464;2023-02-11T03:16:55;7.10;85.48
71184;DHT22;58887;51.980;4.464;2023-02-11T03:19:33;7.14;85.32
71184;DHT22;58887;51.980;4.464;2023-02-11T03:22:08;7.30;85.03
71184;DHT22;58887;51.980;4.464;2023-02-11T03:24:38;7.13;85.52
71184;DHT22;58887;51.980;4.464;2023-02-11T03:27:25;7.25;85.27
71184;DHT22;58887;51.980;4.464;2023-02-11T03:29:58;7.25;85.21
71184;DHT22;58887;51.980;4.464;2023-02-11T03:32:36;7.32;85.07
71184;DHT22;58887;51.980;4.464;2023-02-11T03:35:28;7.32;85.01
71184;DHT22;58887;51.980;4.464;2023-02-11T03:38:02;7.35;85.14
71184;DHT22;58887;51.980;4.464;2023-02-11T03:40:38;7.35;84.94
71184;DHT22;58887;51.980;4.464;2023-02-11T03:43:32;7.18;85.53
71184;DHT22;58887;51.980;4.464;2023-02-11T03:46:01;7.20;85.28
71184;DHT22;58887;51.980;4.464;2023-02-11T03:48:35;7.24;85.45
71184;DHT22;58887;51.980;4.464;2023-02-11T03:51:06;7.41;85.31
71184;DHT22;58887;51.980;4.464;2023-02-11T03:53:35;7.31;85.19
71184;DHT22;58887;51.980;4.464;2023-02-11T03:56:06;7.23;85.44
71184;DHT22;58887;51.980;4.464;2023-02-11T03:58:34;7.20;85.72
71184;DHT22;58887;51.980;4.464;2023-02-11T04:01:00;7.08;86.01
71184;DHT22;58887;51.980;4.464;2023-02-11T04:03:26;7.10;86.15
71184;DHT22;58887;51.980;4.464;2023-02-11T04:05:52;7.17;86.15
71184;DHT22;58887;51.980;4.464;2023-02-11T04:08:18;7.18;86.03
71184;DHT22;58887;51.980;4.464;2023-02-11T04:10:44;7.10;86.45
71184;DHT22;58887;51.980;4.464;2023-02-11T04:13:09;7.13;86.58
71184;DHT22;58887;51.980;4.464;2023-02-11T04:15:35;7.23;86.07
71184;DHT22;58887;51.980;4.464;2023-02-11T04:18:01;7.24;85.71
71184;DHT22;58887;51.980;4.464;2023-02-11T04:20:27;7.20;85.63
71184;DHT22;58887;51.980;4.464;2023-02-11T04:22:53;7.21;85.71
71184;DHT22;58887;51.980;4.464;2023-02-11T04:25:18;7.25;85.87
71184;DHT22;58887;51.980;4.464;2023-02-11T04:27:44;7.20;85.86
71184;DHT22;58887;51.980;4.464;2023-02-11T04:30:10;7.14;86.11
71184;DHT22;58887;51.980;4.464;2023-02-11T04:32:35;7.11;86.21
71184;DHT22;58887;51.980;4.464;2023-02-11T04:35:01;7.13;86.65
71184;DHT22;58887;51.980;4.464;2023-02-11T04:37:27;7.06;86.77
71184;DHT22;58887;51.980;4.464;2023-02-11T04:39:52;7.00;86.80
71184;DHT22;58887;51.980;4.464;2023-02-11T04:42:18;7.10;86.75
71184;DHT22;58887;51.980;4.464;2023-02-11T04:44:43;7.25;86.27
71184;DHT22;58887;51.980;4.464;2023-02-11T04:47:09;7.25;85.97
71184;DHT22;58887;51.980;4.464;2023-02-11T04:49:36;7.18;86.35
71184;DHT22;58887;51.980;4.464;2023-02-11T04:52:02;7.18;86.39
71184;DHT22;58887;51.980;4.464;2023-02-11T04:54:27;7.17;86.23
71184;DHT22;58887;51.980;4.464;2023-02-11T04:56:53;7.03;86.64
71184;DHT22;58887;51.980;4.464;2023-02-11T04:59:18;7.15;86.82
71184;DHT22;58887;51.980;4.464;2023-02-11T05:01:44;7.17;86.60
71184;DHT22;58887;51.980;4.464;2023-02-11T05:04:09;7.18;86.61
71184;DHT22;58887;51.980;4.464;2023-02-11T05:06:37;7.25;86.57
71184;DHT22;58887;51.980;4.464;2023-02-11T05:09:02;7.30;86.50
71184;DHT22;58887;51.980;4.464;2023-02-11T05:11:28;7.23;86.53
71184;DHT22;58887;51.980;4.464;2023-02-11T05:13:53;7.28;86.67
71184;DHT22;58887;51.980;4.464;2023-02-11T05:16:19;7.20;86.91
71184;DHT22;58887;51.980;4.464;2023-02-11T05:18:45;7.21;86.65
71184;DHT22;58887;51.980;4.464;2023-02-11T05:21:16;7.13;86.93
71184;DHT22;58887;51.980;4.464;2023-02-11T05:23:43;7.17;86.80
71184;DHT22;58887;51.980;4.464;2023-02-11T05:26:09;7.15;86.55
71184;DHT22;58887;51.980;4.464;2023-02-11T05:28:35;7.21;86.77
71184;DHT22;58887;51.980;4.464;2023-02-11T05:31:01;7.21;86.65
71184;DHT22;58887;51.980;4.464;2023-02-11T05:33:27;7.11;87.40
71184;DHT22;58887;51.980;4.464;2023-02-11T05:36:00;7.23;86.92
71184;DHT22;58887;51.980;4.464;2023-02-11T05:38:26;7.31;86.82
71184;DHT22;58887;51.980;4.464;2023-02-11T05:40:52;7.27;86.91
71184;DHT22;58887;51.980;4.464;2023-02-11T05:43:17;7.24;86.97
71184;DHT22;58887;51.980;4.464;2023-02-11T05:45:42;7.31;86.80
71184;DHT22;58887;51.980;4.464;2023-02-11T05:48:08;7.32;86.86
71184;DHT22;58887;51.980;4.464;2023-02-11T05:50:33;7.23;86.96
71184;DHT22;58887;51.980;4.464;2023-02-11T05:52:59;7.23;86.88
71184;DHT22;58887;51.980;4.464;2023-02-11T05:55:24;7.27;86.80
71184;DHT22;58887;51.980;4.464;2023-02-11T05:57:50;7.08;87.19
71184;DHT22;58887;51.980;4.464;2023-02-11T06:00:15;7.01;87.55
71184;DHT22;58887;51.980;4.464;2023-02-11T06:02:41;7.11;87.08
71184;DHT22;58887;51.980;4.464;2023-02-11T06:05:07;7.14;86.62
71184;DHT22;58887;51.980;4.464;2023-02-11T06:07:33;7.15;86.33
71184;DHT22;58887;51.980;4.464;2023-02-11T06:09:58;7.10;86.04
71184;DHT22;58887;51.980;4.464;2023-02-11T06:12:25;7.13;86.21
71184;DHT22;58887;51.980;4.464;2023-02-11T06:14:52;7.18;86.23
71184;DHT22;58887;51.980;4.464;2023-02-11T06:17:17;7.15;86.31
71184;DHT22;58887;51.980;4.464;2023-02-11T06:19:43;7.17;86.62
71184;DHT22;58887;51.980;4.464;2023-02-11T06:22:09;7.13;86.81
71184;DHT22;58887;51.980;4.464;2023-02-11T06:24:35;7.04;86.64
71184;DHT22;58887;51.980;4.464;2023-02-11T06:27:03;6.96;87.04
71184;DHT22;58887;51.980;4.464;2023-02-11T06:29:29;6.84;87.31
71184;DHT22;58887;51.980;4.464;2023-02-11T06:31:54;6.92;87.11
71184;DHT22;58887;51.980;4.464;2023-02-11T06:34:20;6.99;87.01
71184;DHT22;58887;51.980;4.464;2023-02-11T06:36:45;6.93;87.08
71184;DHT22;58887;51.980;4.464;2023-02-11T06:39:12;6.96;86.65
71184;DHT22;58887;51.980;4.464;2023-02-11T06:41:38;6.90;86.50
71184;DHT22;58887;51.980;4.464;2023-02-11T06:44:05;6.86;86.25
71184;DHT22;58887;51.980;4.464;2023-02-11T06:46:30;6.79;86.05
71184;DHT22;58887;51.980;4.464;2023-02-11T06:48:56;6.92;86.42
71184;DHT22;58887;51.980;4.464;2023-02-11T06:51:22;6.94;86.20
71184;DHT22;58887;51.980;4.464;2023-02-11T06:53:47;6.86;86.14
71184;DHT22;58887;51.980;4.464;2023-02-11T06:56:16;6.84;86.43
71184;DHT22;58887;51.980;4.464;2023-02-11T06:58:42;6.86;86.82
71184;DHT22;58887;51.980;4.464;2023-02-11T07:01:11;6.94;86.91
71184;DHT22;58887;51.980;4.464;2023-02-11T07:03:38;6.97;86.46
71184;DHT22;58887;51.980;4.464;2023-02-11T07:06:06;6.89;86.29
71184;DHT22;58887;51.980;4.464;2023-02-11T07:08:36;6.89;86.87
71184;DHT22;58887;51.980;4.464;2023-02-11T07:11:14;6.84;87.56
71184;DHT22;58887;51.980;4.464;2023-02-11T07:13:40;6.87;87.63
71184;DHT22;58887;51.980;4.464;2023-02-11T07:16:08;6.99;87.57
71184;DHT22;58887;51.980;4.464;2023-02-11T07:18:33;6.97;87.40
71184;DHT22;58887;51.980;4.464;2023-02-11T07:21:03;7.07;87.33
71184;DHT22;58887;51.980;4.464;2023-02-11T07:23:29;6.99;87.15
71184;DHT22;58887;51.980;4.464;2023-02-11T07:25:54;6.97;87.25
71184;DHT22;58887;51.980;4.464;2023-02-11T07:28:20;7.08;87.10
71184;DHT22;58887;51.980;4.464;2023-02-11T07:30:45;7.14;86.87
71184;DHT22;58887;51.980;4.464;2023-02-11T07:33:11;7.23;86.88
71184;DHT22;58887;51.980;4.464;2023-02-11T07:35:36;7.17;86.98
71184;DHT22;58887;51.980;4.464;2023-02-11T07:38:02;7.15;87.01
71184;DHT22;58887;51.980;4.464;2023-02-11T07:40:28;7.25;86.84
71184;DHT22;58887;51.980;4.464;2023-02-11T07:42:56;7.18;86.21
71184;DHT22;58887;51.980;4.464;2023-02-11T07:45:24;7.35;86.38
71184;DHT22;58887;51.980;4.464;2023-02-11T07:47:50;7.38;86.18
71184;DHT22;58887;51.980;4.464;2023-02-11T07:50:16;7.41;86.21
71184;DHT22;58887;51.980;4.464;2023-02-11T07:52:42;7.45;86.57
71184;DHT22;58887;51.980;4.464;2023-02-11T07:55:08;7.48;86.39
71184;DHT22;58887;51.980;4.464;2023-02-11T07:57:34;7.55;86.45
71184;DHT22;58887;51.980;4.464;2023-02-11T08:00:00;7.61;86.25
71184;DHT22;58887;51.980;4.464;2023-02-11T08:02:26;7.71;86.32
71184;DHT22;58887;51.980;4.464;2023-02-11T08:04:51;7.79;86.14
71184;DHT22;58887;51.980;4.464;2023-02-11T08:07:17;7.87;85.78
71184;DHT22;58887;51.980;4.464;2023-02-11T08:09:43;7.82;85.69
71184;DHT22;58887;51.980;4.464;2023-02-11T08:12:09;7.86;85.85
71184;DHT22;58887;51.980;4.464;2023-02-11T08:14:34;7.76;86.05
71184;DHT22;58887;51.980;4.464;2023-02-11T08:17:00;7.79;86.30
71184;DHT22;58887;51.980;4.464;2023-02-11T08:19:25;7.83;86.17
71184;DHT22;58887;51.980;4.464;2023-02-11T08:21:54;7.95;85.79
71184;DHT22;58887;51.980;4.464;2023-02-11T08:24:20;7.99;85.91
71184;DHT22;58887;51.980;4.464;2023-02-11T08:26:45;8.04;85.72
71184;DHT22;58887;51.980;4.464;2023-02-11T08:29:14;8.19;85.76
71184;DHT22;58887;51.980;4.464;2023-02-11T08:31:42;8.16;85.77
71184;DHT22;58887;51.980;4.464;2023-02-11T08:34:09;8.29;85.82
71184;DHT22;58887;51.980;4.464;2023-02-11T08:36:37;8.33;85.87
71184;DHT22;58887;51.980;4.464;2023-02-11T08:39:07;8.33;85.55
71184;DHT22;58887;51.980;4.464;2023-02-11T08:41:35;8.30;85.98
71184;DHT22;58887;51.980;4.464;2023-02-11T08:44:01;8.41;85.98
71184;DHT22;58887;51.980;4.464;2023-02-11T08:46:27;8.53;85.89
71184;DHT22;58887;51.980;4.464;2023-02-11T08:48:52;8.58;85.98
71184;DHT22;58887;51.980;4.464;2023-02-11T08:51:24;8.74;85.98
71184;DHT22;58887;51.980;4.464;2023-02-11T08:53:53;8.78;85.55
71184;DHT22;58887;51.980;4.464;2023-02-11T08:56:20;8.85;85.53
71184;DHT22;58887;51.980;4.464;2023-02-11T08:58:46;8.85;85.45
71184;DHT22;58887;51.980;4.464;2023-02-11T09:01:15;8.89;85.63
71184;DHT22;58887;51.980;4.464;2023-02-11T09:03:41;8.88;85.82
71184;DHT22;58887;51.980;4.464;2023-02-11T09:06:09;9.06;85.52
71184;DHT22;58887;51.980;4.464;2023-02-11T09:08:37;9.11;85.59
71184;DHT22;58887;51.980;4.464;2023-02-11T09:11:03;9.11;85.52
71184;DHT22;58887;51.980;4.464;2023-02-11T09:13:30;9.24;85.38
71184;DHT22;58887;51.980;4.464;2023-02-11T09:15:57;9.33;85.24
71184;DHT22;58887;51.980;4.464;2023-02-11T09:18:22;9.43;84.70
71184;DHT22;58887;51.980;4.464;2023-02-11T09:20:48;9.60;84.27
71184;DHT22;58887;51.980;4.464;2023-02-11T09:23:14;9.61;84.00
71184;DHT22;58887;51.980;4.464;2023-02-11T09:25:39;9.71;84.10
71184;DHT22;58887;51.980;4.464;2023-02-11T09:28:06;9.74;83.69
71184;DHT22;58887;51.980;4.464;2023-02-11T09:30:32;9.82;83.53
71184;DHT22;58887;51.980;4.464;2023-02-11T09:32:58;9.90;82.98
71184;DHT22;58887;51.980;4.464;2023-02-11T09:35:24;9.92;82.95
71184;DHT22;58887;51.980;4.464;2023-02-11T09:37:49;10.02;82.34
71184;DHT22;58887;51.980;4.464;2023-02-11T09:40:16;9.99;82.26
71184;DHT22;58887;51.980;4.464;2023-02-11T09:42:56;10.15;82.00
71184;DHT22;58887;51.980;4.464;2023-02-11T09:45:28;10.15;81.82
71184;DHT22;58887;51.980;4.464;2023-02-11T09:48:17;10.13;81.33
71184;DHT22;58887;51.980;4.464;2023-02-11T09:50:59;10.31;81.02
71184;DHT22;58887;51.980;4.464;2023-02-11T09:53:30;10.06;81.47
71184;DHT22;58887;51.980;4.464;2023-02-11T09:55:59;10.21;80.82
71184;DHT22;58887;51.980;4.464;2023-02-11T09:58:27;10.25;80.73
71184;DHT22;58887;51.980;4.464;2023-02-11T10:01:07;10.33;80.32
71184;DHT22;58887;51.980;4.464;2023-02-11T10:03:52;10.21;80.24
71184;DHT22;58887;51.980;4.464;2023-02-11T10:06:44;10.45;79.98
71184;DHT22;58887;51.980;4.464;2023-02-11T10:20:20;10.87;78.17
71184;DHT22;58887;51.980;4.464;2023-02-11T10:22:51;11.01;78.18
71184;DHT22;58887;51.980;4.464;2023-02-11T10:25:25;11.27;77.84
71184;DHT22;58887;51.980;4.464;2023-02-11T10:27:54;11.31;77.01
71184;DHT22;58887;51.980;4.464;2023-02-11T10:30:32;11.24;77.04
71184;DHT22;58887;51.980;4.464;2023-02-11T10:33:16;11.35;76.63
71184;DHT22;58887;51.980;4.464;2023-02-11T10:35:44;11.35;76.48
71184;DHT22;58887;51.980;4.464;2023-02-11T10:38:11;11.32;76.41
71184;DHT22;58887;51.980;4.464;2023-02-11T10:40:37;11.25;76.99
71184;DHT22;58887;51.980;4.464;2023-02-11T10:43:06;11.11;77.42
71184;DHT22;58887;51.980;4.464;2023-02-11T10:45:50;11.12;77.67
71184;DHT22;58887;51.980;4.464;2023-02-11T10:53:39;10.87;77.74
71184;DHT22;58887;51.980;4.464;2023-02-11T10:56:07;11.04;77.52
71184;DHT22;58887;51.980;4.464;2023-02-11T10:58:53;11.11;77.52
71184;DHT22;58887;51.980;4.464;2023-02-11T11:01:20;11.14;77.41
71184;DHT22;58887;51.980;4.464;2023-02-11T11:03:51;11.21;77.48
71184;DHT22;58887;51.980;4.464;2023-02-11T11:06:29;11.17;77.46
71184;DHT22;58887;51.980;4.464;2023-02-11T11:08:55;11.27;77.13
71184;DHT22;58887;51.980;4.464;2023-02-11T11:11:24;11.39;76.92
71184;DHT22;58887;51.980;4.464;2023-02-11T11:16:27;11.35;76.53
71184;DHT22;58887;51.980;4.464;2023-02-11T11:21:51;11.59;75.80
71184;DHT22;58887;51.980;4.464;2023-02-11T11:24:21;11.41;76.05
71184;DHT22;58887;51.980;4.464;2023-02-11T11:26:54;11.48;76.00
71184;DHT22;58887;51.980;4.464;2023-02-11T11:29:42;11.42;76.44
71184;DHT22;58887;51.980;4.464;2023-02-11T11:32:10;11.35;76.34
71184;DHT22;58887;51.980;4.464;2023-02-11T11:34:40;11.52;76.26
71184;DHT22;58887;51.980;4.464;2023-02-11T11:39:59;11.59;75.27
71184;DHT22;58887;51.980;4.464;2023-02-11T11:42:35;11.62;75.47
71184;DHT22;58887;51.980;4.464;2023-02-11T11:45:22;11.70;75.47
71184;DHT22;58887;51.980;4.464;2023-02-11T11:53:17;11.14;76.09
71184;DHT22;58887;51.980;4.464;2023-02-11T11:55:58;11.30;76.47
71184;DHT22;58887;51.980;4.464;2023-02-11T11:58:24;11.28;76.67
71184;DHT22;58887;51.980;4.464;2023-02-11T12:00:55;11.22;76.60
71184;DHT22;58887;51.980;4.464;2023-02-11T12:06:38;10.94;77.63
71184;DHT22;58887;51.980;4.464;2023-02-11T12:09:13;10.96;77.73
71184;DHT22;58887;51.980;4.464;2023-02-11T12:23:18;11.11;77.27
71184;DHT22;58887;51.980;4.464;2023-02-11T12:26:03;11.07;77.04
71184;DHT22;58887;51.980;4.464;2023-02-11T12:41:38;11.17;76.73
71184;DHT22;58887;51.980;4.464;2023-02-11T12:50:55;11.65;74.93
71184;DHT22;58887;51.980;4.464;2023-02-11T12:53:40;11.68;74.92
71184;DHT22;58887;51.980;4.464;2023-02-11T12:58:59;11.61;75.36
71184;DHT22;58887;51.980;4.464;2023-02-11T13:01:48;11.76;74.95
71184;DHT22;58887;51.980;4.464;2023-02-11T13:05:00;11.97;74.54
71184;DHT22;58887;51.980;4.464;2023-02-11T13:07:27;12.10;73.56
71184;DHT22;58887;51.980;4.464;2023-02-11T13:10:37;11.91;73.16
71184;DHT22;58887;51.980;4.464;2023-02-11T13:13:15;11.80;73.38
71184;DHT22;58887;51.980;4.464;2023-02-11T13:15:55;11.70;73.53
71184;DHT22;58887;51.980;4.464;2023-02-11T13:18:44;11.43;74.16
71184;DHT22;58887;51.980;4.464;2023-02-11T13:24:39;11.61;74.13
71184;DHT22;58887;51.980;4.464;2023-02-11T13:27:07;11.57;73.21
71184;DHT22;58887;51.980;4.464;2023-02-11T13:32:14;11.94;73.14
71184;DHT22;58887;51.980;4.464;2023-02-11T13:37:22;12.13;71.85
71184;DHT22;58887;51.980;4.464;2023-02-11T13:42:21;12.13;71.68
71184;DHT22;58887;51.980;4.464;2023-02-11T13:44:47;12.13;71.50
71184;DHT22;58887;51.980;4.464;2023-02-11T13:47:26;11.96;71.51
71184;DHT22;58887;51.980;4.464;2023-02-11T13:49:56;11.90;71.88
71184;DHT22;58887;51.980;4.464;2023-02-11T13:52:29;11.80;71.40
71184;DHT22;58887;51.980;4.464;2023-02-11T13:55:08;11.76;71.89
71184;DHT22;58887;51.980;4.464;2023-02-11T13:57:40;11.52;71.37
71184;DHT22;58887;51.980;4.464;2023-02-11T14:19:35;11.89;70.35
71184;DHT22;58887;51.980;4.464;2023-02-11T14:22:10;11.85;70.45
71184;DHT22;58887;51.980;4.464;2023-02-11T14:27:10;11.65;70.72
71184;DHT22;58887;51.980;4.464;2023-02-11T14:41:00;11.61;71.50
71184;DHT22;58887;51.980;4.464;2023-02-11T14:43:35;11.46;71.38
71184;DHT22;58887;51.980;4.464;2023-02-11T14:46:02;11.36;71.92
71184;DHT22;58887;51.980;4.464;2023-02-11T14:48:44;11.52;72.15
71184;DHT22;58887;51.980;4.464;2023-02-11T14:51:23;11.57;71.08
71184;DHT22;58887;51.980;4.464;2023-02-11T14:54:10;11.54;71.23
71184;DHT22;58887;51.980;4.464;2023-02-11T14:56:40;11.39;71.16
71184;DHT22;58887;51.980;4.464;2023-02-11T14:59:17;11.43;71.43
71184;DHT22;58887;51.980;4.464;2023-02-11T15:01:48;11.58;71.41
71184;DHT22;58887;51.980;4.464;2023-02-11T15:04:29;11.42;71.43
71184;DHT22;58887;51.980;4.464;2023-02-11T15:06:58;11.41;72.05
71184;DHT22;58887;51.980;4.464;2023-02-11T15:09:43;11.46;71.58
71184;DHT22;58887;51.980;4.464;2023-02-11T15:12:18;11.22;71.61
71184;DHT22;58887;51.980;4.464;2023-02-11T15:14:50;11.22;72.31
71184;DHT22;58887;51.980;4.464;2023-02-11T15:17:21;11.18;71.83
71184;DHT22;58887;51.980;4.464;2023-02-11T15:19:52;11.24;72.02
71184;DHT22;58887;51.980;4.464;2023-02-11T15:22:21;11.30;71.97
71184;DHT22;58887;51.980;4.464;2023-02-11T15:25:17;11.27;71.77
71184;DHT22;58887;51.980;4.464;2023-02-11T15:27:46;11.30;72.09
71184;DHT22;58887;51.980;4.464;2023-02-11T15:30:31;11.30;72.42
71184;DHT22;58887;51.980;4.464;2023-02-11T15:33:01;11.39;72.01
71184;DHT22;58887;51.980;4.464;2023-02-11T15:35:33;11.34;72.05
71184;DHT22;58887;51.980;4.464;2023-02-11T15:38:01;11.32;71.87
71184;DHT22;58887;51.980;4.464;2023-02-11T15:40:34;11.24;72.41
71184;DHT22;58887;51.980;4.464;2023-02-11T15:43:09;11.25;72.21
71184;DHT22;58887;51.980;4.464;2023-02-11T15:48:33;11.08;72.59
71184;DHT22;58887;51.980;4.464;2023-02-11T15:51:07;11.06;72.89
71184;DHT22;58887;51.980;4.464;2023-02-11T15:53:42;11.01;72.96
71184;DHT22;58887;51.980;4.464;2023-02-11T15:56:14;11.01;72.92
71184;DHT22;58887;51.980;4.464;2023-02-11T15:58:45;11.03;72.92
71184;DHT22;58887;51.980;4.464;2023-02-11T16:01:12;10.99;72.47
71184;DHT22;58887;51.980;4.464;2023-02-11T16:03:40;10.89;73.09
71184;DHT22;58887;51.980;4.464;2023-02-11T16:06:19;10.85;72.80
71184;DHT22;58887;51.980;4.464;2023-02-11T16:09:03;10.74;73.18
71184;DHT22;58887;51.980;4.464;2023-02-11T16:11:32;10.70;73.29
71184;DHT22;58887;51.980;4.464;2023-02-11T16:14:00;10.64;73.56
71184;DHT22;58887;51.980;4.464;2023-02-11T16:16:31;10.29;74.35
71184;DHT22;58887;51.980;4.464;2023-02-11T16:19:02;10.41;73.91
71184;DHT22;58887;51.980;4.464;2023-02-11T16:21:34;10.48;73.60
71184;DHT22;58887;51.980;4.464;2023-02-11T16:24:13;10.35;74.27
71184;DHT22;58887;51.980;4.464;2023-02-11T16:26:48;10.48;74.15
71184;DHT22;58887;51.980;4.464;2023-02-11T16:29:17;10.52;73.96
71184;DHT22;58887;51.980;4.464;2023-02-11T16:31:47;10.50;74.11
71184;DHT22;58887;51.980;4.464;2023-02-11T16:34:29;10.55;73.66
71184;DHT22;58887;51.980;4.464;2023-02-11T16:37:07;10.49;73.99
71184;DHT22;58887;51.980;4.464;2023-02-11T16:39:36;10.57;73.90
71184;DHT22;58887;51.980;4.464;2023-02-11T16:42:03;10.60;73.69
71184;DHT22;58887;51.980;4.464;2023-02-11T16:44:28;10.53;73.85
71184;DHT22;58887;51.980;4.464;2023-02-11T16:46:58;10.29;74.60
71184;DHT22;58887;51.980;4.464;2023-02-11T16:49:30;10.32;74.73
71184;DHT22;58887;51.980;4.464;2023-02-11T16:52:01;10.35;74.59
71184;DHT22;58887;51.980;4.464;2023-02-11T16:54:29;10.42;74.48
71184;DHT22;58887;51.980;4.464;2023-02-11T16:56:56;10.35;74.53
71184;DHT22;58887;51.980;4.464;2023-02-11T16:59:22;10.26;74.55
71184;DHT22;58887;51.980;4.464;2023-02-11T17:01:49;10.28;74.88
71184;DHT22;58887;51.980;4.464;2023-02-11T17:04:20;10.41;74.79
71184;DHT22;58887;51.980;4.464;2023-02-11T17:06:46;10.41;74.58
71184;DHT22;58887;51.980;4.464;2023-02-11T17:09:19;10.43;74.46
71184;DHT22;58887;51.980;4.464;2023-02-11T17:11:45;10.38;74.64
71184;DHT22;58887;51.980;4.464;2023-02-11T17:14:10;10.38;74.46
71184;DHT22;58887;51.980;4.464;2023-02-11T17:16:36;10.35;74.62
71184;DHT22;58887;51.980;4.464;2023-02-11T17:19:01;10.31;74.84
71184;DHT22;58887;51.980;4.464;2023-02-11T17:21:27;10.33;74.89
71184;DHT22;58887;51.980;4.464;2023-02-11T17:23:56;10.35;74.74
71184;DHT22;58887;51.980;4.464;2023-02-11T17:26:21;10.31;74.85
71184;DHT22;58887;51.980;4.464;2023-02-11T17:28:47;10.31;75.05
71184;DHT22;58887;51.980;4.464;2023-02-11T17:31:12;10.31;74.98
71184;DHT22;58887;51.980;4.464;2023-02-11T17:33:38;10.18;75.32
71184;DHT22;58887;51.980;4.464;2023-02-11T17:36:05;10.16;75.31
71184;DHT22;58887;51.980;4.464;2023-02-11T17:38:32;10.19;75.15
71184;DHT22;58887;51.980;4.464;2023-02-11T17:41:00;10.18;75.47
71184;DHT22;58887;51.980;4.464;2023-02-11T17:43:27;10.26;75.35
71184;DHT22;58887;51.980;4.464;2023-02-11T17:45:52;10.23;75.34
71184;DHT22;58887;51.980;4.464;2023-02-11T17:48:18;10.18;75.53
71184;DHT22;58887;51.980;4.464;2023-02-11T17:50:44;10.25;75.24
71184;DHT22;58887;51.980;4.464;2023-02-11T17:53:09;10.19;75.43
71184;DHT22;58887;51.980;4.464;2023-02-11T17:55:35;10.16;75.62
71184;DHT22;58887;51.980;4.464;2023-02-11T17:58:03;10.12;75.66
71184;DHT22;58887;51.980;4.464;2023-02-11T18:00:29;10.31;75.42
71184;DHT22;58887;51.980;4.464;2023-02-11T18:02:55;10.21;75.45
71184;DHT22;58887;51.980;4.464;2023-02-11T18:05:23;10.12;75.92
71184;DHT22;58887;51.980;4.464;2023-02-11T18:07:50;10.06;76.00
71184;DHT22;58887;51.980;4.464;2023-02-11T18:10:16;9.98;76.34
71184;DHT22;58887;51.980;4.464;2023-02-11T18:12:42;10.08;76.22
71184;DHT22;58887;51.980;4.464;2023-02-11T18:15:08;10.01;76.30
71184;DHT22;58887;51.980;4.464;2023-02-11T18:17:33;10.11;76.02